CGI weather

Cape Girardeau Regional Airport
Cape Girardeau, Missouri, United States

Public forecast

Using degrees Fahrenheit for public forecast. Weather courtesy of forecast.io.

Current aviation weather report (METAR) for Cape Girardeau Regional Airport

Retrieved 2020/05/30 17:53 UTC (16 minutes ago):

KCGI 301753Z 34006KT 10SM CLR 24/12 A3018 RMK AO2 SLP218 T02390122 10239 20167 58006

Aviation forecast (TAF) for Cape Girardeau Regional Airport

Retrieved 2020/05/30 18:22 UTC (0 seconds ago):

TAF KCGI 301720Z 3018/3118 36008KT P6SM SCT200 FM310100 02003KT P6SM FEW120 SCT200 FM311400 05007KT P6SM FEW060